sensor_id;sensor_type;location;lat;lon;timestamp;P1;durP1;ratioP1;P2;durP2;ratioP2
29916;SDS011;16786;49.466;11.068;2022-08-23T00:01:18;8.25;;;7.30;;
29916;SDS011;16786;49.466;11.068;2022-08-23T00:03:51;9.50;;;8.10;;
29916;SDS011;16786;49.466;11.068;2022-08-23T00:06:19;10.60;;;7.57;;
29916;SDS011;16786;49.466;11.068;2022-08-23T00:08:51;9.82;;;8.55;;
29916;SDS011;16786;49.466;11.068;2022-08-23T00:13:58;14.43;;;8.23;;
29916;SDS011;16786;49.466;11.068;2022-08-23T00:16:28;11.13;;;7.93;;
29916;SDS011;16786;49.466;11.068;2022-08-23T00:18:55;9.45;;;7.70;;
29916;SDS011;16786;49.466;11.068;2022-08-23T00:21:22;10.55;;;8.30;;
29916;SDS011;16786;49.466;11.068;2022-08-23T00:23:50;9.45;;;7.40;;
29916;SDS011;16786;49.466;11.068;2022-08-23T00:26:18;11.20;;;7.90;;
29916;SDS011;16786;49.466;11.068;2022-08-23T00:28:47;9.50;;;7.95;;
29916;SDS011;16786;49.466;11.068;2022-08-23T00:31:16;12.95;;;8.15;;
29916;SDS011;16786;49.466;11.068;2022-08-23T00:33:44;11.27;;;7.60;;
29916;SDS011;16786;49.466;11.068;2022-08-23T00:36:12;10.68;;;7.75;;
29916;SDS011;16786;49.466;11.068;2022-08-23T00:38:39;9.57;;;7.25;;
29916;SDS011;16786;49.466;11.068;2022-08-23T00:41:07;8.70;;;7.80;;
29916;SDS011;16786;49.466;11.068;2022-08-23T00:43:36;9.57;;;7.22;;
29916;SDS011;16786;49.466;11.068;2022-08-23T00:49:11;9.75;;;7.07;;
29916;SDS011;16786;49.466;11.068;2022-08-23T00:54:19;11.27;;;8.07;;
29916;SDS011;16786;49.466;11.068;2022-08-23T00:56:49;7.88;;;7.13;;
29916;SDS011;16786;49.466;11.068;2022-08-23T00:59:18;10.02;;;8.07;;
29916;SDS011;16786;49.466;11.068;2022-08-23T01:01:46;9.85;;;8.00;;
29916;SDS011;16786;49.466;11.068;2022-08-23T01:04:14;8.27;;;7.43;;
29916;SDS011;16786;49.466;11.068;2022-08-23T01:09:17;12.52;;;8.27;;
29916;SDS011;16786;49.466;11.068;2022-08-23T01:14:25;8.57;;;7.68;;
29916;SDS011;16786;49.466;11.068;2022-08-23T01:17:07;9.30;;;7.88;;
29916;SDS011;16786;49.466;11.068;2022-08-23T01:19:55;12.18;;;8.20;;
29916;SDS011;16786;49.466;11.068;2022-08-23T01:22:32;16.02;;;8.23;;
29916;SDS011;16786;49.466;11.068;2022-08-23T01:25:13;9.52;;;8.00;;
29916;SDS011;16786;49.466;11.068;2022-08-23T01:27:43;14.03;;;7.70;;
29916;SDS011;16786;49.466;11.068;2022-08-23T01:30:16;8.73;;;7.45;;
29916;SDS011;16786;49.466;11.068;2022-08-23T01:32:48;10.25;;;8.43;;
29916;SDS011;16786;49.466;11.068;2022-08-23T01:37:54;9.13;;;7.63;;
29916;SDS011;16786;49.466;11.068;2022-08-23T01:40:22;10.20;;;7.72;;
29916;SDS011;16786;49.466;11.068;2022-08-23T01:42:50;13.00;;;8.02;;
29916;SDS011;16786;49.466;11.068;2022-08-23T01:45:17;9.18;;;7.35;;
29916;SDS011;16786;49.466;11.068;2022-08-23T01:47:45;9.07;;;7.53;;
29916;SDS011;16786;49.466;11.068;2022-08-23T01:50:13;9.70;;;7.85;;
29916;SDS011;16786;49.466;11.068;2022-08-23T01:52:41;11.15;;;7.40;;
29916;SDS011;16786;49.466;11.068;2022-08-23T01:55:13;11.50;;;7.68;;
29916;SDS011;16786;49.466;11.068;2022-08-23T01:57:41;10.30;;;7.28;;
29916;SDS011;16786;49.466;11.068;2022-08-23T02:00:15;9.68;;;7.43;;
29916;SDS011;16786;49.466;11.068;2022-08-23T02:02:45;9.68;;;7.43;;
29916;SDS011;16786;49.466;11.068;2022-08-23T02:05:13;11.25;;;7.90;;
29916;SDS011;16786;49.466;11.068;2022-08-23T02:07:45;9.82;;;7.40;;
29916;SDS011;16786;49.466;11.068;2022-08-23T02:10:15;10.93;;;8.40;;
29916;SDS011;16786;49.466;11.068;2022-08-23T02:12:43;9.68;;;7.88;;
29916;SDS011;16786;49.466;11.068;2022-08-23T02:15:15;13.60;;;7.57;;
29916;SDS011;16786;49.466;11.068;2022-08-23T02:17:45;11.50;;;7.78;;
29916;SDS011;16786;49.466;11.068;2022-08-23T02:20:13;9.57;;;7.35;;
29916;SDS011;16786;49.466;11.068;2022-08-23T02:22:40;10.13;;;7.40;;
29916;SDS011;16786;49.466;11.068;2022-08-23T02:25:08;12.65;;;7.82;;
29916;SDS011;16786;49.466;11.068;2022-08-23T02:27:35;8.48;;;7.13;;
29916;SDS011;16786;49.466;11.068;2022-08-23T02:30:10;10.02;;;7.50;;
29916;SDS011;16786;49.466;11.068;2022-08-23T02:32:38;9.60;;;7.65;;
29916;SDS011;16786;49.466;11.068;2022-08-23T02:35:05;9.18;;;7.80;;
29916;SDS011;16786;49.466;11.068;2022-08-23T02:37:34;9.63;;;7.75;;
29916;SDS011;16786;49.466;11.068;2022-08-23T02:40:03;9.48;;;7.80;;
29916;SDS011;16786;49.466;11.068;2022-08-23T02:42:32;11.88;;;8.40;;
29916;SDS011;16786;49.466;11.068;2022-08-23T02:45:01;8.07;;;7.28;;
29916;SDS011;16786;49.466;11.068;2022-08-23T02:47:31;11.88;;;7.90;;
29916;SDS011;16786;49.466;11.068;2022-08-23T02:50:14;8.50;;;7.70;;
29916;SDS011;16786;49.466;11.068;2022-08-23T02:52:42;9.32;;;7.97;;
29916;SDS011;16786;49.466;11.068;2022-08-23T02:55:10;8.95;;;7.22;;
29916;SDS011;16786;49.466;11.068;2022-08-23T02:57:38;10.35;;;7.53;;
29916;SDS011;16786;49.466;11.068;2022-08-23T03:00:09;8.48;;;7.07;;
29916;SDS011;16786;49.466;11.068;2022-08-23T03:02:38;11.73;;;7.53;;
29916;SDS011;16786;49.466;11.068;2022-08-23T03:05:07;9.10;;;7.80;;
29916;SDS011;16786;49.466;11.068;2022-08-23T03:07:35;11.63;;;8.65;;
29916;SDS011;16786;49.466;11.068;2022-08-23T03:10:03;9.57;;;7.80;;
29916;SDS011;16786;49.466;11.068;2022-08-23T03:12:35;9.10;;;7.82;;
29916;SDS011;16786;49.466;11.068;2022-08-23T03:15:04;10.10;;;8.32;;
29916;SDS011;16786;49.466;11.068;2022-08-23T03:17:33;11.38;;;8.60;;
29916;SDS011;16786;49.466;11.068;2022-08-23T03:20:04;12.50;;;8.27;;
29916;SDS011;16786;49.466;11.068;2022-08-23T03:22:32;10.13;;;8.52;;
29916;SDS011;16786;49.466;11.068;2022-08-23T03:25:00;9.65;;;8.45;;
29916;SDS011;16786;49.466;11.068;2022-08-23T03:27:38;9.77;;;8.15;;
29916;SDS011;16786;49.466;11.068;2022-08-23T03:30:11;12.45;;;8.00;;
29916;SDS011;16786;49.466;11.068;2022-08-23T03:32:52;10.43;;;7.93;;
29916;SDS011;16786;49.466;11.068;2022-08-23T03:35:20;11.43;;;8.45;;
29916;SDS011;16786;49.466;11.068;2022-08-23T03:37:47;10.90;;;8.23;;
29916;SDS011;16786;49.466;11.068;2022-08-23T03:40:21;11.40;;;8.68;;
29916;SDS011;16786;49.466;11.068;2022-08-23T03:42:49;8.85;;;7.95;;
29916;SDS011;16786;49.466;11.068;2022-08-23T03:45:20;11.77;;;8.68;;
29916;SDS011;16786;49.466;11.068;2022-08-23T03:47:48;11.98;;;8.02;;
29916;SDS011;16786;49.466;11.068;2022-08-23T03:50:15;15.85;;;8.45;;
29916;SDS011;16786;49.466;11.068;2022-08-23T03:52:43;10.70;;;8.77;;
29916;SDS011;16786;49.466;11.068;2022-08-23T03:55:10;9.25;;;8.23;;
29916;SDS011;16786;49.466;11.068;2022-08-23T03:57:41;11.70;;;9.27;;
29916;SDS011;16786;49.466;11.068;2022-08-23T04:00:09;16.30;;;8.82;;
29916;SDS011;16786;49.466;11.068;2022-08-23T04:02:48;11.40;;;9.10;;
29916;SDS011;16786;49.466;11.068;2022-08-23T04:05:17;11.10;;;8.43;;
29916;SDS011;16786;49.466;11.068;2022-08-23T04:07:57;10.90;;;8.20;;
29916;SDS011;16786;49.466;11.068;2022-08-23T04:10:25;10.35;;;8.45;;
29916;SDS011;16786;49.466;11.068;2022-08-23T04:12:54;10.55;;;8.75;;
29916;SDS011;16786;49.466;11.068;2022-08-23T04:15:22;10.18;;;8.93;;
29916;SDS011;16786;49.466;11.068;2022-08-23T04:17:50;12.57;;;8.55;;
29916;SDS011;16786;49.466;11.068;2022-08-23T04:20:18;11.93;;;8.50;;
29916;SDS011;16786;49.466;11.068;2022-08-23T04:22:52;13.10;;;8.63;;
29916;SDS011;16786;49.466;11.068;2022-08-23T04:25:22;10.57;;;8.73;;
29916;SDS011;16786;49.466;11.068;2022-08-23T04:28:03;12.00;;;9.17;;
29916;SDS011;16786;49.466;11.068;2022-08-23T04:30:32;13.25;;;9.15;;
29916;SDS011;16786;49.466;11.068;2022-08-23T04:33:01;9.85;;;8.30;;
29916;SDS011;16786;49.466;11.068;2022-08-23T04:35:36;10.27;;;8.48;;
29916;SDS011;16786;49.466;11.068;2022-08-23T04:38:04;11.57;;;8.85;;
29916;SDS011;16786;49.466;11.068;2022-08-23T04:40:54;10.55;;;8.40;;
29916;SDS011;16786;49.466;11.068;2022-08-23T04:43:58;10.98;;;8.43;;
29916;SDS011;16786;49.466;11.068;2022-08-23T04:46:27;12.20;;;8.75;;
29916;SDS011;16786;49.466;11.068;2022-08-23T04:48:58;10.27;;;8.13;;
29916;SDS011;16786;49.466;11.068;2022-08-23T04:51:26;9.63;;;8.23;;
29916;SDS011;16786;49.466;11.068;2022-08-23T04:53:54;10.05;;;8.20;;
29916;SDS011;16786;49.466;11.068;2022-08-23T04:56:39;13.07;;;8.77;;
29916;SDS011;16786;49.466;11.068;2022-08-23T04:59:08;11.23;;;8.27;;
29916;SDS011;16786;49.466;11.068;2022-08-23T05:01:41;9.85;;;8.07;;
29916;SDS011;16786;49.466;11.068;2022-08-23T05:04:08;12.05;;;8.88;;
29916;SDS011;16786;49.466;11.068;2022-08-23T05:06:38;12.18;;;8.88;;
29916;SDS011;16786;49.466;11.068;2022-08-23T05:09:05;14.32;;;8.75;;
29916;SDS011;16786;49.466;11.068;2022-08-23T05:11:34;10.95;;;7.50;;
29916;SDS011;16786;49.466;11.068;2022-08-23T05:14:01;14.25;;;9.02;;
29916;SDS011;16786;49.466;11.068;2022-08-23T05:16:29;9.15;;;8.25;;
29916;SDS011;16786;49.466;11.068;2022-08-23T05:19:02;10.30;;;7.75;;
29916;SDS011;16786;49.466;11.068;2022-08-23T05:21:32;12.68;;;9.45;;
29916;SDS011;16786;49.466;11.068;2022-08-23T05:24:00;12.27;;;9.65;;
29916;SDS011;16786;49.466;11.068;2022-08-23T05:26:30;11.07;;;9.57;;
29916;SDS011;16786;49.466;11.068;2022-08-23T05:28:57;10.73;;;8.55;;
29916;SDS011;16786;49.466;11.068;2022-08-23T05:31:30;13.55;;;8.77;;
29916;SDS011;16786;49.466;11.068;2022-08-23T05:34:00;11.13;;;8.68;;
29916;SDS011;16786;49.466;11.068;2022-08-23T05:36:38;10.02;;;8.60;;
29916;SDS011;16786;49.466;11.068;2022-08-23T05:39:22;11.15;;;9.18;;
29916;SDS011;16786;49.466;11.068;2022-08-23T05:42:07;9.00;;;8.05;;
29916;SDS011;16786;49.466;11.068;2022-08-23T05:44:36;9.60;;;8.32;;
29916;SDS011;16786;49.466;11.068;2022-08-23T05:47:07;9.27;;;7.80;;
29916;SDS011;16786;49.466;11.068;2022-08-23T05:50:00;9.43;;;7.60;;
29916;SDS011;16786;49.466;11.068;2022-08-23T05:52:31;11.45;;;9.00;;
29916;SDS011;16786;49.466;11.068;2022-08-23T05:54:59;11.45;;;7.68;;
29916;SDS011;16786;49.466;11.068;2022-08-23T05:57:51;16.30;;;9.68;;
29916;SDS011;16786;49.466;11.068;2022-08-23T06:00:18;12.43;;;8.77;;
29916;SDS011;16786;49.466;11.068;2022-08-23T06:02:58;9.85;;;7.95;;
29916;SDS011;16786;49.466;11.068;2022-08-23T06:05:25;13.52;;;9.07;;
29916;SDS011;16786;49.466;11.068;2022-08-23T06:07:53;13.52;;;9.02;;
29916;SDS011;16786;49.466;11.068;2022-08-23T06:10:22;12.52;;;8.75;;
29916;SDS011;16786;49.466;11.068;2022-08-23T06:12:58;11.45;;;9.00;;
29916;SDS011;16786;49.466;11.068;2022-08-23T06:15:29;13.25;;;8.80;;
29916;SDS011;16786;49.466;11.068;2022-08-23T06:17:57;10.00;;;7.78;;
29916;SDS011;16786;49.466;11.068;2022-08-23T06:20:25;11.75;;;7.47;;
29916;SDS011;16786;49.466;11.068;2022-08-23T06:22:58;11.05;;;7.20;;
29916;SDS011;16786;49.466;11.068;2022-08-23T06:25:26;9.30;;;7.90;;
29916;SDS011;16786;49.466;11.068;2022-08-23T06:28:09;13.43;;;9.02;;
29916;SDS011;16786;49.466;11.068;2022-08-23T06:30:37;12.27;;;8.38;;
29916;SDS011;16786;49.466;11.068;2022-08-23T06:33:16;12.50;;;8.20;;
29916;SDS011;16786;49.466;11.068;2022-08-23T06:35:44;14.40;;;9.52;;
29916;SDS011;16786;49.466;11.068;2022-08-23T06:38:18;12.50;;;8.85;;
29916;SDS011;16786;49.466;11.068;2022-08-23T06:40:45;13.18;;;9.13;;
29916;SDS011;16786;49.466;11.068;2022-08-23T06:43:22;12.27;;;8.65;;
29916;SDS011;16786;49.466;11.068;2022-08-23T06:46:18;13.30;;;9.20;;
29916;SDS011;16786;49.466;11.068;2022-08-23T06:48:49;11.60;;;8.68;;
29916;SDS011;16786;49.466;11.068;2022-08-23T06:51:26;13.60;;;9.23;;
29916;SDS011;16786;49.466;11.068;2022-08-23T06:54:15;11.02;;;8.75;;
29916;SDS011;16786;49.466;11.068;2022-08-23T06:56:50;11.50;;;8.48;;
29916;SDS011;16786;49.466;11.068;2022-08-23T06:59:24;14.55;;;8.90;;
29916;SDS011;16786;49.466;11.068;2022-08-23T07:02:12;11.88;;;9.57;;
29916;SDS011;16786;49.466;11.068;2022-08-23T07:04:58;15.70;;;8.90;;
29916;SDS011;16786;49.466;11.068;2022-08-23T07:07:29;14.43;;;9.00;;
29916;SDS011;16786;49.466;11.068;2022-08-23T07:10:07;13.63;;;8.98;;
29916;SDS011;16786;49.466;11.068;2022-08-23T07:12:39;10.57;;;8.45;;
29916;SDS011;16786;49.466;11.068;2022-08-23T07:15:11;12.52;;;9.25;;
29916;SDS011;16786;49.466;11.068;2022-08-23T07:17:42;10.25;;;8.57;;
29916;SDS011;16786;49.466;11.068;2022-08-23T07:20:09;10.23;;;8.05;;
29916;SDS011;16786;49.466;11.068;2022-08-23T07:22:39;10.32;;;8.20;;
29916;SDS011;16786;49.466;11.068;2022-08-23T07:25:08;9.52;;;8.52;;
29916;SDS011;16786;49.466;11.068;2022-08-23T07:27:37;9.85;;;8.32;;
29916;SDS011;16786;49.466;11.068;2022-08-23T07:30:06;9.05;;;7.50;;
29916;SDS011;16786;49.466;11.068;2022-08-23T07:32:37;8.88;;;7.38;;
29916;SDS011;16786;49.466;11.068;2022-08-23T07:35:24;9.70;;;7.70;;
29916;SDS011;16786;49.466;11.068;2022-08-23T07:37:55;9.70;;;7.93;;
29916;SDS011;16786;49.466;11.068;2022-08-23T07:40:28;8.18;;;7.32;;
29916;SDS011;16786;49.466;11.068;2022-08-23T07:45:29;9.68;;;7.50;;
29916;SDS011;16786;49.466;11.068;2022-08-23T07:48:00;12.63;;;8.40;;
29916;SDS011;16786;49.466;11.068;2022-08-23T07:50:33;10.57;;;7.40;;
29916;SDS011;16786;49.466;11.068;2022-08-23T07:53:02;10.50;;;8.02;;
29916;SDS011;16786;49.466;11.068;2022-08-23T07:55:29;9.13;;;7.78;;
29916;SDS011;16786;49.466;11.068;2022-08-23T07:57:57;8.73;;;7.50;;
29916;SDS011;16786;49.466;11.068;2022-08-23T08:00:44;9.35;;;8.27;;
29916;SDS011;16786;49.466;11.068;2022-08-23T08:03:34;10.38;;;7.07;;
29916;SDS011;16786;49.466;11.068;2022-08-23T08:06:10;9.65;;;8.00;;
29916;SDS011;16786;49.466;11.068;2022-08-23T08:08:40;8.70;;;7.80;;
29916;SDS011;16786;49.466;11.068;2022-08-23T08:11:09;8.57;;;7.35;;
29916;SDS011;16786;49.466;11.068;2022-08-23T08:13:38;10.50;;;7.80;;
29916;SDS011;16786;49.466;11.068;2022-08-23T08:16:07;8.93;;;8.02;;
29916;SDS011;16786;49.466;11.068;2022-08-23T08:18:39;11.80;;;7.78;;
29916;SDS011;16786;49.466;11.068;2022-08-23T08:21:44;11.13;;;7.75;;
29916;SDS011;16786;49.466;11.068;2022-08-23T08:24:32;9.05;;;7.50;;
29916;SDS011;16786;49.466;11.068;2022-08-23T08:27:04;8.55;;;7.65;;
29916;SDS011;16786;49.466;11.068;2022-08-23T08:29:33;9.23;;;7.60;;
29916;SDS011;16786;49.466;11.068;2022-08-23T08:32:00;11.75;;;7.68;;
29916;SDS011;16786;49.466;11.068;2022-08-23T08:34:28;10.98;;;7.68;;
29916;SDS011;16786;49.466;11.068;2022-08-23T08:36:56;9.05;;;7.57;;
29916;SDS011;16786;49.466;11.068;2022-08-23T08:39:29;11.15;;;7.78;;
29916;SDS011;16786;49.466;11.068;2022-08-23T08:44:44;12.98;;;7.68;;
29916;SDS011;16786;49.466;11.068;2022-08-23T08:50:12;8.77;;;6.68;;
29916;SDS011;16786;49.466;11.068;2022-08-23T08:53:12;8.38;;;6.32;;
29916;SDS011;16786;49.466;11.068;2022-08-23T08:56:00;7.78;;;6.65;;
29916;SDS011;16786;49.466;11.068;2022-08-23T08:58:41;6.93;;;5.65;;
29916;SDS011;16786;49.466;11.068;2022-08-23T09:01:30;6.68;;;6.05;;
29916;SDS011;16786;49.466;11.068;2022-08-23T09:04:01;6.60;;;6.00;;
29916;SDS011;16786;49.466;11.068;2022-08-23T09:06:35;9.48;;;6.10;;
29916;SDS011;16786;49.466;11.068;2022-08-23T09:14:49;7.15;;;6.43;;
29916;SDS011;16786;49.466;11.068;2022-08-23T09:17:28;7.13;;;6.40;;
29916;SDS011;16786;49.466;11.068;2022-08-23T09:20:06;7.10;;;6.15;;
29916;SDS011;16786;49.466;11.068;2022-08-23T09:22:37;8.00;;;6.30;;
29916;SDS011;16786;49.466;11.068;2022-08-23T09:25:18;7.75;;;6.50;;
29916;SDS011;16786;49.466;11.068;2022-08-23T09:27:55;8.68;;;5.90;;
29916;SDS011;16786;49.466;11.068;2022-08-23T09:30:22;6.95;;;5.90;;
29916;SDS011;16786;49.466;11.068;2022-08-23T09:33:13;7.07;;;5.68;;
29916;SDS011;16786;49.466;11.068;2022-08-23T09:38:48;6.20;;;5.70;;
29916;SDS011;16786;49.466;11.068;2022-08-23T09:41:40;6.63;;;6.03;;
29916;SDS011;16786;49.466;11.068;2022-08-23T09:44:11;7.30;;;5.80;;
29916;SDS011;16786;49.466;11.068;2022-08-23T09:49:26;9.32;;;6.38;;
29916;SDS011;16786;49.466;11.068;2022-08-23T09:52:12;6.80;;;6.18;;
29916;SDS011;16786;49.466;11.068;2022-08-23T09:54:57;7.60;;;6.60;;
29916;SDS011;16786;49.466;11.068;2022-08-23T09:57:31;7.53;;;6.60;;
29916;SDS011;16786;49.466;11.068;2022-08-23T10:00:01;8.13;;;6.30;;
29916;SDS011;16786;49.466;11.068;2022-08-23T10:02:50;6.60;;;5.90;;
29916;SDS011;16786;49.466;11.068;2022-08-23T10:05:35;6.00;;;5.50;;
29916;SDS011;16786;49.466;11.068;2022-08-23T10:10:43;8.07;;;5.95;;
29916;SDS011;16786;49.466;11.068;2022-08-23T10:13:20;6.25;;;5.65;;
29916;SDS011;16786;49.466;11.068;2022-08-23T10:24:10;6.72;;;6.13;;
29916;SDS011;16786;49.466;11.068;2022-08-23T10:27:01;6.85;;;6.20;;
29916;SDS011;16786;49.466;11.068;2022-08-23T10:30:05;6.90;;;5.68;;
29916;SDS011;16786;49.466;11.068;2022-08-23T10:32:46;6.47;;;5.80;;
29916;SDS011;16786;49.466;11.068;2022-08-23T10:38:58;5.97;;;5.38;;
29916;SDS011;16786;49.466;11.068;2022-08-23T10:44:21;6.53;;;6.03;;
29916;SDS011;16786;49.466;11.068;2022-08-23T10:46:59;5.90;;;5.38;;
29916;SDS011;16786;49.466;11.068;2022-08-23T10:49:42;6.35;;;5.75;;
29916;SDS011;16786;49.466;11.068;2022-08-23T10:52:14;6.55;;;5.95;;
29916;SDS011;16786;49.466;11.068;2022-08-23T10:55:00;6.22;;;5.72;;
29916;SDS011;16786;49.466;11.068;2022-08-23T10:57:44;6.60;;;6.00;;
29916;SDS011;16786;49.466;11.068;2022-08-23T11:00:15;7.32;;;5.95;;
29916;SDS011;16786;49.466;11.068;2022-08-23T11:02:51;8.80;;;5.70;;
29916;SDS011;16786;49.466;11.068;2022-08-23T11:05:28;6.53;;;5.40;;
29916;SDS011;16786;49.466;11.068;2022-08-23T11:10:49;6.45;;;5.95;;
29916;SDS011;16786;49.466;11.068;2022-08-23T11:13:29;6.07;;;5.57;;
29916;SDS011;16786;49.466;11.068;2022-08-23T11:16:12;6.07;;;5.47;;
29916;SDS011;16786;49.466;11.068;2022-08-23T11:18:51;7.47;;;5.20;;
29916;SDS011;16786;49.466;11.068;2022-08-23T11:21:42;5.90;;;5.30;;
29916;SDS011;16786;49.466;11.068;2022-08-23T11:35:06;5.18;;;4.78;;
29916;SDS011;16786;49.466;11.068;2022-08-23T11:37:48;5.53;;;5.03;;
29916;SDS011;16786;49.466;11.068;2022-08-23T11:40:37;5.47;;;5.00;;
29916;SDS011;16786;49.466;11.068;2022-08-23T11:57:49;6.68;;;6.10;;
29916;SDS011;16786;49.466;11.068;2022-08-23T12:03:28;6.38;;;5.88;;
29916;SDS011;16786;49.466;11.068;2022-08-23T12:11:23;5.70;;;5.20;;
29916;SDS011;16786;49.466;11.068;2022-08-23T12:13:56;5.68;;;5.18;;
29916;SDS011;16786;49.466;11.068;2022-08-23T12:16:28;5.65;;;5.25;;
29916;SDS011;16786;49.466;11.068;2022-08-23T12:19:03;5.70;;;5.30;;
29916;SDS011;16786;49.466;11.068;2022-08-23T12:21:43;6.28;;;5.68;;
29916;SDS011;16786;49.466;11.068;2022-08-23T12:37:57;6.75;;;6.25;;
29916;SDS011;16786;49.466;11.068;2022-08-23T12:40:47;6.53;;;6.03;;
29916;SDS011;16786;49.466;11.068;2022-08-23T12:45:53;6.10;;;5.70;;
29916;SDS011;16786;49.466;11.068;2022-08-23T12:48:22;6.50;;;6.00;;
29916;SDS011;16786;49.466;11.068;2022-08-23T12:50:53;6.40;;;5.90;;
29916;SDS011;16786;49.466;11.068;2022-08-23T12:53:33;6.90;;;6.40;;
29916;SDS011;16786;49.466;11.068;2022-08-23T12:58:45;6.90;;;6.30;;
29916;SDS011;16786;49.466;11.068;2022-08-23T13:01:22;6.47;;;5.97;;
29916;SDS011;16786;49.466;11.068;2022-08-23T13:03:58;5.88;;;5.47;;
29916;SDS011;16786;49.466;11.068;2022-08-23T13:06:55;6.50;;;5.90;;
29916;SDS011;16786;49.466;11.068;2022-08-23T13:09:23;6.55;;;6.00;;
29916;SDS011;16786;49.466;11.068;2022-08-23T13:11:56;6.43;;;5.93;;
29916;SDS011;16786;49.466;11.068;2022-08-23T13:20:25;6.22;;;5.82;;
29916;SDS011;16786;49.466;11.068;2022-08-23T13:22:55;6.75;;;6.10;;
29916;SDS011;16786;49.466;11.068;2022-08-23T13:25:35;7.95;;;5.88;;
29916;SDS011;16786;49.466;11.068;2022-08-23T13:28:20;6.20;;;5.60;;
29916;SDS011;16786;49.466;11.068;2022-08-23T13:30:58;6.00;;;5.60;;
29916;SDS011;16786;49.466;11.068;2022-08-23T13:33:30;5.03;;;4.63;;
29916;SDS011;16786;49.466;11.068;2022-08-23T13:36:14;6.35;;;5.85;;
29916;SDS011;16786;49.466;11.068;2022-08-23T13:38:46;6.13;;;5.60;;
29916;SDS011;16786;49.466;11.068;2022-08-23T13:41:31;6.15;;;5.50;;
29916;SDS011;16786;49.466;11.068;2022-08-23T13:44:05;5.78;;;5.18;;
29916;SDS011;16786;49.466;11.068;2022-08-23T13:46:34;6.03;;;5.50;;
29916;SDS011;16786;49.466;11.068;2022-08-23T13:49:18;5.78;;;5.25;;
29916;SDS011;16786;49.466;11.068;2022-08-23T13:54:45;6.22;;;5.80;;
29916;SDS011;16786;49.466;11.068;2022-08-23T13:57:18;6.53;;;5.70;;
29916;SDS011;16786;49.466;11.068;2022-08-23T13:59:48;5.65;;;5.25;;
29916;SDS011;16786;49.466;11.068;2022-08-23T14:02:21;5.57;;;5.10;;
29916;SDS011;16786;49.466;11.068;2022-08-23T14:04:49;6.40;;;5.90;;
29916;SDS011;16786;49.466;11.068;2022-08-23T14:07:17;6.50;;;5.90;;
29916;SDS011;16786;49.466;11.068;2022-08-23T14:09:45;6.70;;;6.07;;
29916;SDS011;16786;49.466;11.068;2022-08-23T14:12:20;6.20;;;5.70;;
29916;SDS011;16786;49.466;11.068;2022-08-23T14:14:53;6.93;;;5.93;;
29916;SDS011;16786;49.466;11.068;2022-08-23T14:17:22;7.93;;;5.80;;
29916;SDS011;16786;49.466;11.068;2022-08-23T14:19:50;6.90;;;6.40;;
29916;SDS011;16786;49.466;11.068;2022-08-23T14:22:37;6.20;;;5.68;;
29916;SDS011;16786;49.466;11.068;2022-08-23T14:25:06;6.40;;;5.90;;
29916;SDS011;16786;49.466;11.068;2022-08-23T14:27:34;6.87;;;6.33;;
29916;SDS011;16786;49.466;11.068;2022-08-23T14:30:05;6.30;;;5.78;;
29916;SDS011;16786;49.466;11.068;2022-08-23T14:32:33;6.60;;;6.00;;
29916;SDS011;16786;49.466;11.068;2022-08-23T14:35:01;6.50;;;5.90;;
29916;SDS011;16786;49.466;11.068;2022-08-23T14:37:28;6.70;;;6.10;;
29916;SDS011;16786;49.466;11.068;2022-08-23T14:40:15;6.63;;;6.03;;
29916;SDS011;16786;49.466;11.068;2022-08-23T14:42:44;6.70;;;6.18;;
29916;SDS011;16786;49.466;11.068;2022-08-23T14:45:13;7.88;;;6.38;;
29916;SDS011;16786;49.466;11.068;2022-08-23T14:47:41;7.25;;;6.63;;
29916;SDS011;16786;49.466;11.068;2022-08-23T14:50:10;6.93;;;6.40;;
29916;SDS011;16786;49.466;11.068;2022-08-23T14:52:40;6.60;;;6.10;;
29916;SDS011;16786;49.466;11.068;2022-08-23T14:55:11;7.00;;;6.45;;
29916;SDS011;16786;49.466;11.068;2022-08-23T14:57:39;6.68;;;6.15;;
29916;SDS011;16786;49.466;11.068;2022-08-23T15:00:07;6.45;;;5.95;;
29916;SDS011;16786;49.466;11.068;2022-08-23T15:02:43;7.18;;;6.53;;
29916;SDS011;16786;49.466;11.068;2022-08-23T15:05:12;6.72;;;6.22;;
29916;SDS011;16786;49.466;11.068;2022-08-23T15:07:40;6.77;;;6.17;;
29916;SDS011;16786;49.466;11.068;2022-08-23T15:10:09;6.07;;;5.68;;
29916;SDS011;16786;49.466;11.068;2022-08-23T15:12:58;6.55;;;5.95;;
29916;SDS011;16786;49.466;11.068;2022-08-23T15:15:41;6.45;;;5.88;;
29916;SDS011;16786;49.466;11.068;2022-08-23T15:18:08;6.28;;;5.78;;
29916;SDS011;16786;49.466;11.068;2022-08-23T15:20:36;6.15;;;5.75;;
29916;SDS011;16786;49.466;11.068;2022-08-23T15:23:04;6.53;;;6.03;;
29916;SDS011;16786;49.466;11.068;2022-08-23T15:25:35;7.45;;;6.25;;
29916;SDS011;16786;49.466;11.068;2022-08-23T15:28:05;6.88;;;6.20;;
29916;SDS011;16786;49.466;11.068;2022-08-23T15:30:39;6.57;;;6.07;;
29916;SDS011;16786;49.466;11.068;2022-08-23T15:33:07;6.50;;;6.00;;
29916;SDS011;16786;49.466;11.068;2022-08-23T15:35:41;6.20;;;5.80;;
29916;SDS011;16786;49.466;11.068;2022-08-23T15:38:11;6.53;;;6.03;;
29916;SDS011;16786;49.466;11.068;2022-08-23T15:40:41;6.32;;;5.88;;
29916;SDS011;16786;49.466;11.068;2022-08-23T15:43:10;6.57;;;6.07;;
29916;SDS011;16786;49.466;11.068;2022-08-23T15:45:37;6.85;;;6.35;;
29916;SDS011;16786;49.466;11.068;2022-08-23T15:48:10;6.80;;;6.30;;
29916;SDS011;16786;49.466;11.068;2022-08-23T15:51:00;7.00;;;6.40;;
29916;SDS011;16786;49.466;11.068;2022-08-23T15:53:29;7.97;;;6.10;;
29916;SDS011;16786;49.466;11.068;2022-08-23T15:55:57;6.90;;;6.30;;
29916;SDS011;16786;49.466;11.068;2022-08-23T15:58:31;6.82;;;6.32;;
29916;SDS011;16786;49.466;11.068;2022-08-23T16:00:58;6.53;;;6.07;;
29916;SDS011;16786;49.466;11.068;2022-08-23T16:03:25;6.20;;;5.80;;
29916;SDS011;16786;49.466;11.068;2022-08-23T16:05:53;6.97;;;6.28;;
29916;SDS011;16786;49.466;11.068;2022-08-23T16:08:27;7.20;;;6.70;;
29916;SDS011;16786;49.466;11.068;2022-08-23T16:10:57;6.40;;;5.82;;
29916;SDS011;16786;49.466;11.068;2022-08-23T16:13:27;6.88;;;6.28;;
29916;SDS011;16786;49.466;11.068;2022-08-23T16:15:54;6.00;;;5.50;;
29916;SDS011;16786;49.466;11.068;2022-08-23T16:18:23;6.25;;;5.72;;
29916;SDS011;16786;49.466;11.068;2022-08-23T16:20:50;6.00;;;5.50;;
29916;SDS011;16786;49.466;11.068;2022-08-23T16:23:20;6.80;;;6.20;;
29916;SDS011;16786;49.466;11.068;2022-08-23T16:25:48;6.13;;;5.63;;
29916;SDS011;16786;49.466;11.068;2022-08-23T16:28:16;5.90;;;5.40;;
29916;SDS011;16786;49.466;11.068;2022-08-23T16:30:43;6.00;;;5.40;;
29916;SDS011;16786;49.466;11.068;2022-08-23T16:33:10;6.43;;;5.80;;
29916;SDS011;16786;49.466;11.068;2022-08-23T16:35:38;6.15;;;5.55;;
29916;SDS011;16786;49.466;11.068;2022-08-23T16:38:05;5.70;;;5.20;;
29916;SDS011;16786;49.466;11.068;2022-08-23T16:40:32;5.50;;;5.10;;
29916;SDS011;16786;49.466;11.068;2022-08-23T16:43:00;5.88;;;5.38;;
29916;SDS011;16786;49.466;11.068;2022-08-23T16:45:27;5.63;;;5.22;;
29916;SDS011;16786;49.466;11.068;2022-08-23T16:47:54;5.43;;;5.03;;
29916;SDS011;16786;49.466;11.068;2022-08-23T16:50:22;5.93;;;5.43;;
29916;SDS011;16786;49.466;11.068;2022-08-23T16:52:49;5.82;;;5.32;;
29916;SDS011;16786;49.466;11.068;2022-08-23T16:55:16;6.68;;;5.38;;
29916;SDS011;16786;49.466;11.068;2022-08-23T16:57:44;5.43;;;5.03;;
29916;SDS011;16786;49.466;11.068;2022-08-23T17:00:12;5.53;;;5.00;;
29916;SDS011;16786;49.466;11.068;2022-08-23T17:02:41;5.70;;;5.20;;